Time;durP1;ratioP1;P1;durP2;ratioP2;P2;SDS_P1;SDS_P2;PMS_P1;PMS_P2;Temp;Humidity;BMP_temperature;BMP_pressure;BME280_temperature;BME280_humidity;BME280_pressure;Samples;Min_cycle;Max_cycle;Signal;HPM_P1;HPM_P2
2024/04/06 00:02:17;;;;;;;;;;;;;;;;;;107808;1244;62813;-81
2024/04/06 00:04:44;;;;;;;;;;;;;;;;;;109150;1251;62643;-82
2024/04/06 00:07:10;;;;;;;;;;;;;;;;;;108861;1244;62851;-82
2024/04/06 00:09:36;;;;;;;;;;;;;;;;;;108208;1244;62892;-81
2024/04/06 00:12:02;;;;;;;;;;;;;;;;;;107788;1244;62822;-82
2024/04/06 00:14:28;;;;;;;;;;;;;;;;;;107963;1246;62815;-81
2024/04/06 00:16:54;;;;;;;;;;;;;;;;;;107753;1244;63206;-82
2024/04/06 00:19:21;;;;;;;;;;;;;;;;;;107795;1249;62943;-82
2024/04/06 00:21:47;;;;;;;;;;;;;;;;;;107876;1244;63813;-82
2024/04/06 00:24:13;;;;;;;;;;;;;;;;;;107858;1244;62863;-81
2024/04/06 00:26:39;;;;;;;;;;;;;;;;;;107839;1244;64421;-82
2024/04/06 00:29:05;;;;;;;;;;;;;;;;;;107810;1247;62901;-81
2024/04/06 00:31:31;;;;;;;;;;;;;;;;;;107817;1244;62963;-79
2024/04/06 00:34:01;;;;;;;;;;;;;;;;;;107778;1244;62874;-80
2024/04/06 00:36:27;;;;;;;;;;;;;;;;;;107764;1245;62813;-80
2024/04/06 00:38:54;;;;;;;;;;;;;;;;;;107767;1245;63634;-80
2024/04/06 00:41:20;;;;;;;;;;;;;;;;;;107793;1245;62873;-80
2024/04/06 00:43:46;;;;;;;;;;;;;;;;;;107851;1244;62886;-80
2024/04/06 00:46:12;;;;;;;;;;;;;;;;;;107757;1244;62938;-80
2024/04/06 00:48:39;;;;;;;;;;;;;;;;;;107775;1250;62847;-81
2024/04/06 00:51:05;;;;;;;;;;;;;;;;;;107877;1249;62808;-81
2024/04/06 00:53:31;;;;;;;;;;;;;;;;;;107849;1244;62889;-81
2024/04/06 00:55:57;;;;;;;;;;;;;;;;;;107800;1245;62940;-81
2024/04/06 00:58:23;;;;;;;;;;;;;;;;;;107911;1244;62852;-81
2024/04/06 01:00:50;;;;;;;;;;;;;;;;;;107792;1246;62713;-80
2024/04/06 01:03:16;;;;;;;;;;;;;;;;;;107834;1249;63069;-81
2024/04/06 01:05:43;;;;;;;;;;;;;;;;;;107800;1249;62880;-81
2024/04/06 01:08:09;;;;;;;;;;;;;;;;;;107865;1245;62949;-80
2024/04/06 01:10:35;;;;;;;;;;;;;;;;;;107838;1244;62834;-80
2024/04/06 01:13:01;;;;;;;;;;;;;;;;;;107998;1244;63462;-80
2024/04/06 01:15:32;;;;;;;;;;;;;;;;;;107800;1250;62856;-81
2024/04/06 01:17:58;;;;;;;;;;;;;;;;;;107784;1244;62818;-81
2024/04/06 01:20:24;;;;;;;;;;;;;;;;;;107817;1250;63033;-80
2024/04/06 01:22:50;;;;;;;;;;;;;;;;;;107756;1249;62922;-81
2024/04/06 01:25:16;;;;;;;;;;;;;;;;;;107822;1249;62829;-81
2024/04/06 01:27:44;;;;;;;;;;;;;;;;;;109062;1244;62928;-81
2024/04/06 01:30:10;;;;;;;;;;;;;;;;;;107857;1244;62911;-81
2024/04/06 01:32:37;;;;;;;;;;;;;;;;;;107812;1244;62828;-81
2024/04/06 01:35:03;;;;;;;;;;;;;;;;;;107801;1245;63008;-81
2024/04/06 01:37:29;;;;;;;;;;;;;;;;;;107867;1244;62944;-81
2024/04/06 01:39:55;;;;;;;;;;;;;;;;;;107738;1249;63759;-81
2024/04/06 01:42:22;;;;;;;;;;;;;;;;;;109551;1244;62829;-81
2024/04/06 01:44:48;;;;;;;;;;;;;;;;;;109742;1244;61184;-81
2024/04/06 01:47:14;;;;;;;;;;;;;;;;;;107751;1244;62890;-80
2024/04/06 01:49:40;;;;;;;;;;;;;;;;;;109847;1244;60725;-79
2024/04/06 01:52:07;;;;;;;;;;;;;;;;;;110093;1244;61153;-78
2024/04/06 01:54:33;;;;;;;;;;;;;;;;;;109895;1245;60688;-79
2024/04/06 01:56:59;;;;;;;;;;;;;;;;;;109953;1244;60783;-79
2024/04/06 01:59:26;;;;;;;;;;;;;;;;;;110026;1244;60657;-79
2024/04/06 02:01:52;;;;;;;;;;;;;;;;;;110017;1244;60959;-79
2024/04/06 02:04:18;;;;;;;;;;;;;;;;;;110053;1244;60946;-82
2024/04/06 02:06:44;;;;;;;;;;;;;;;;;;110101;1244;61212;-82
2024/04/06 02:09:11;;;;;;;;;;;;;;;;;;110060;1244;61257;-82
2024/04/06 02:11:37;;;;;;;;;;;;;;;;;;110044;1244;60764;-81
2024/04/06 02:14:03;;;;;;;;;;;;;;;;;;110048;1244;61036;-79
2024/04/06 02:16:29;;;;;;;;;;;;;;;;;;110055;1244;61226;-79
2024/04/06 02:18:55;;;;;;;;;;;;;;;;;;110016;1246;60814;-79
2024/04/06 02:21:21;;;;;;;;;;;;;;;;;;110027;1244;60562;-79
2024/04/06 02:23:47;;;;;;;;;;;;;;;;;;109968;1244;61197;-80
2024/04/06 02:26:14;;;;;;;;;;;;;;;;;;110059;1244;60630;-79
2024/04/06 02:28:40;;;;;;;;;;;;;;;;;;110180;1249;60563;-79
2024/04/06 02:31:09;;;;;;;;;;;;;;;;;;110085;1244;60617;-79
2024/04/06 02:33:36;;;;;;;;;;;;;;;;;;110025;1244;60564;-79
2024/04/06 02:36:02;;;;;;;;;;;;;;;;;;110025;1244;60560;-79
2024/04/06 02:38:28;;;;;;;;;;;;;;;;;;110237;1244;60459;-79
2024/04/06 02:40:54;;;;;;;;;;;;;;;;;;110247;1244;60719;-79
2024/04/06 02:43:21;;;;;;;;;;;;;;;;;;110125;1244;61426;-79
2024/04/06 02:45:47;;;;;;;;;;;;;;;;;;110038;1244;61194;-80
2024/04/06 02:48:14;;;;;;;;;;;;;;;;;;110007;1244;61508;-80
2024/04/06 02:50:41;;;;;;;;;;;;;;;;;;110031;1244;60986;-79
2024/04/06 02:53:07;;;;;;;;;;;;;;;;;;109993;1244;61336;-79
2024/04/06 02:55:33;;;;;;;;;;;;;;;;;;109967;1244;61099;-81
2024/04/06 02:57:59;;;;;;;;;;;;;;;;;;110058;1244;60693;-81
2024/04/06 03:00:26;;;;;;;;;;;;;;;;;;110059;1244;60680;-80
2024/04/06 03:02:52;;;;;;;;;;;;;;;;;;110090;1244;60899;-79
2024/04/06 03:05:18;;;;;;;;;;;;;;;;;;110108;1244;60624;-81
2024/04/06 03:07:45;;;;;;;;;;;;;;;;;;110037;1244;61170;-81
2024/04/06 03:10:11;;;;;;;;;;;;;;;;;;110083;1244;60667;-81
2024/04/06 03:12:37;;;;;;;;;;;;;;;;;;110093;1244;61210;-81
2024/04/06 03:15:05;;;;;;;;;;;;;;;;;;110062;1244;60846;-80
2024/04/06 03:17:31;;;;;;;;;;;;;;;;;;110076;1244;60862;-82
2024/04/06 03:19:58;;;;;;;;;;;;;;;;;;110076;1244;61116;-81
2024/04/06 03:22:24;;;;;;;;;;;;;;;;;;110101;1244;61320;-79
2024/04/06 03:24:50;;;;;;;;;;;;;;;;;;109976;1244;60833;-79
2024/04/06 03:27:16;;;;;;;;;;;;;;;;;;110041;1244;60864;-79
2024/04/06 03:29:42;;;;;;;;;;;;;;;;;;110080;1244;60638;-79
2024/04/06 03:32:09;;;;;;;;;;;;;;;;;;110052;1244;60930;-79
2024/04/06 03:34:35;;;;;;;;;;;;;;;;;;110074;1244;61204;-79
2024/04/06 03:37:01;;;;;;;;;;;;;;;;;;110085;1244;60717;-79
2024/04/06 03:39:27;;;;;;;;;;;;;;;;;;109996;1246;60643;-79
2024/04/06 03:41:53;;;;;;;;;;;;;;;;;;110017;1245;62331;-80
2024/04/06 03:44:20;;;;;;;;;;;;;;;;;;109989;1244;61281;-79
2024/04/06 03:46:46;;;;;;;;;;;;;;;;;;110032;1244;61127;-79
2024/04/06 03:49:12;;;;;;;;;;;;;;;;;;110009;1245;60711;-78
2024/04/06 03:51:38;;;;;;;;;;;;;;;;;;110027;1244;60682;-79
2024/04/06 03:54:05;;;;;;;;;;;;;;;;;;109986;1244;61256;-79
2024/04/06 03:56:31;;;;;;;;;;;;;;;;;;110009;1244;60872;-79
2024/04/06 03:58:57;;;;;;;;;;;;;;;;;;110054;1244;61283;-79
2024/04/06 04:01:23;;;;;;;;;;;;;;;;;;110050;1244;61269;-80
2024/04/06 04:03:50;;;;;;;;;;;;;;;;;;110022;1244;61272;-79
2024/04/06 04:06:16;;;;;;;;;;;;;;;;;;110017;1244;60913;-80
2024/04/06 04:08:43;;;;;;;;;;;;;;;;;;110010;1244;61243;-79
2024/04/06 04:11:10;;;;;;;;;;;;;;;;;;110076;1244;60673;-79
2024/04/06 04:13:36;;;;;;;;;;;;;;;;;;110036;1244;61227;-79
2024/04/06 04:16:02;;;;;;;;;;;;;;;;;;110020;1244;61285;-79
2024/04/06 04:18:29;;;;;;;;;;;;;;;;;;110025;1244;61243;-82
2024/04/06 04:20:55;;;;;;;;;;;;;;;;;;110054;1244;61246;-79
2024/04/06 04:23:21;;;;;;;;;;;;;;;;;;110043;1244;60958;-79
2024/04/06 04:25:47;;;;;;;;;;;;;;;;;;110029;1244;61173;-79
2024/04/06 04:28:14;;;;;;;;;;;;;;;;;;109997;1244;60997;-79
2024/04/06 04:30:41;;;;;;;;;;;;;;;;;;110017;1244;60557;-79
2024/04/06 04:33:07;;;;;;;;;;;;;;;;;;110000;1244;63538;-79
2024/04/06 04:35:33;;;;;;;;;;;;;;;;;;110028;1244;61332;-79
2024/04/06 04:38:00;;;;;;;;;;;;;;;;;;110000;1244;60636;-79
2024/04/06 04:40:26;;;;;;;;;;;;;;;;;;110009;1244;61191;-79
2024/04/06 04:42:52;;;;;;;;;;;;;;;;;;110031;1244;60693;-79
2024/04/06 04:45:18;;;;;;;;;;;;;;;;;;109989;1244;61034;-81
2024/04/06 04:47:44;;;;;;;;;;;;;;;;;;110085;1244;61255;-80
2024/04/06 04:50:11;;;;;;;;;;;;;;;;;;110057;1244;61315;-79
2024/04/06 04:52:37;;;;;;;;;;;;;;;;;;110007;1245;61155;-79
2024/04/06 04:55:04;;;;;;;;;;;;;;;;;;110050;1244;61496;-79
2024/04/06 04:57:30;;;;;;;;;;;;;;;;;;109975;1245;60655;-79
2024/04/06 04:59:59;;;;;;;;;;;;;;;;;;110048;1244;61128;-79
2024/04/06 05:02:26;;;;;;;;;;;;;;;;;;110030;1244;61252;-80
2024/04/06 05:04:52;;;;;;;;;;;;;;;;;;110020;1245;61298;-80
2024/04/06 05:07:18;;;;;;;;;;;;;;;;;;109997;1244;61463;-79
2024/04/06 05:09:45;;;;;;;;;;;;;;;;;;110040;1244;60817;-79
2024/04/06 05:12:11;;;;;;;;;;;;;;;;;;110072;1244;60653;-80
2024/04/06 05:14:37;;;;;;;;;;;;;;;;;;110027;1247;61024;-80
2024/04/06 05:17:03;;;;;;;;;;;;;;;;;;110025;1247;60588;-79
2024/04/06 05:19:30;;;;;;;;;;;;;;;;;;110058;1244;60795;-80
2024/04/06 05:21:56;;;;;;;;;;;;;;;;;;110030;1244;61186;-80
2024/04/06 05:24:22;;;;;;;;;;;;;;;;;;109997;1244;61384;-80
2024/04/06 05:26:49;;;;;;;;;;;;;;;;;;110033;1247;60712;-79
2024/04/06 05:29:15;;;;;;;;;;;;;;;;;;109994;1244;60900;-79
2024/04/06 05:31:41;;;;;;;;;;;;;;;;;;110024;1245;60833;-79
2024/04/06 05:34:07;;;;;;;;;;;;;;;;;;110064;1245;61261;-81
2024/04/06 05:36:34;;;;;;;;;;;;;;;;;;109985;1245;60741;-80
2024/04/06 05:39:00;;;;;;;;;;;;;;;;;;110001;1245;60918;-80
2024/04/06 05:41:26;;;;;;;;;;;;;;;;;;110062;1245;61166;-80
2024/04/06 05:43:53;;;;;;;;;;;;;;;;;;109995;1245;63563;-80
2024/04/06 05:46:19;;;;;;;;;;;;;;;;;;110009;1244;61155;-81
2024/04/06 05:48:45;;;;;;;;;;;;;;;;;;109992;1245;61244;-79
2024/04/06 05:51:11;;;;;;;;;;;;;;;;;;109982;1245;61226;-80
2024/04/06 05:53:40;;;;;;;;;;;;;;;;;;110008;1245;61023;-80
2024/04/06 05:56:06;;;;;;;;;;;;;;;;;;109999;1244;62322;-79
2024/04/06 05:58:33;;;;;;;;;;;;;;;;;;109972;1244;60548;-79
2024/04/06 06:00:59;;;;;;;;;;;;;;;;;;109980;1244;60698;-80
2024/04/06 06:03:26;;;;;;;;;;;;;;;;;;109992;1245;61189;-81
2024/04/06 06:05:52;;;;;;;;;;;;;;;;;;110068;1244;60663;-80
2024/04/06 06:08:18;;;;;;;;;;;;;;;;;;110017;1244;60990;-80
2024/04/06 06:10:45;;;;;;;;;;;;;;;;;;109883;1244;181044;-80
2024/04/06 06:13:11;;;;;;;;;;;;;;;;;;110036;1245;60914;-79
2024/04/06 06:15:37;;;;;;;;;;;;;;;;;;110019;1246;61316;-80
2024/04/06 06:18:03;;;;;;;;;;;;;;;;;;109933;1246;60604;-79
2024/04/06 06:20:29;;;;;;;;;;;;;;;;;;109844;1246;61106;-80
2024/04/06 06:22:55;;;;;;;;;;;;;;;;;;109899;1244;61043;-80
2024/04/06 06:25:22;;;;;;;;;;;;;;;;;;109963;1245;60753;-80
2024/04/06 06:27:48;;;;;;;;;;;;;;;;;;109951;1244;60756;-79
2024/04/06 06:30:15;;;;;;;;;;;;;;;;;;110059;1245;60572;-79
2024/04/06 06:32:41;;;;;;;;;;;;;;;;;;110122;1245;61327;-79
2024/04/06 06:35:07;;;;;;;;;;;;;;;;;;109979;1245;60677;-80
2024/04/06 06:37:33;;;;;;;;;;;;;;;;;;109990;1246;60618;-79
2024/04/06 06:39:59;;;;;;;;;;;;;;;;;;110018;1245;60561;-80
2024/04/06 06:42:25;;;;;;;;;;;;;;;;;;110039;1249;60681;-80
2024/04/06 06:44:51;;;;;;;;;;;;;;;;;;109979;1247;60651;-79
2024/04/06 06:47:18;;;;;;;;;;;;;;;;;;109988;1244;61125;-79
2024/04/06 06:49:44;;;;;;;;;;;;;;;;;;110002;1244;61258;-80
2024/04/06 06:52:10;;;;;;;;;;;;;;;;;;110023;1245;61213;-79
2024/04/06 06:54:36;;;;;;;;;;;;;;;;;;110073;1244;60598;-80
2024/04/06 06:57:03;;;;;;;;;;;;;;;;;;110075;1244;61034;-80
2024/04/06 06:59:29;;;;;;;;;;;;;;;;;;110000;1247;61276;-79
2024/04/06 07:01:55;;;;;;;;;;;;;;;;;;109940;1244;60701;-80
2024/04/06 07:04:21;;;;;;;;;;;;;;;;;;109984;1245;60646;-80
2024/04/06 07:06:48;;;;;;;;;;;;;;;;;;109946;1244;60690;-79
2024/04/06 07:09:14;;;;;;;;;;;;;;;;;;109931;1246;61257;-80
2024/04/06 07:11:40;;;;;;;;;;;;;;;;;;109944;1244;61368;-80
2024/04/06 07:14:11;;;;;;;;;;;;;;;;;;110000;1247;60809;-80
2024/04/06 07:16:37;;;;;;;;;;;;;;;;;;110009;1246;63969;-80
2024/04/06 07:19:03;;;;;;;;;;;;;;;;;;109936;1246;60647;-80
2024/04/06 07:21:30;;;;;;;;;;;;;;;;;;110015;1244;61113;-79
2024/04/06 07:23:56;;;;;;;;;;;;;;;;;;110014;1245;61202;-79
2024/04/06 07:26:23;;;;;;;;;;;;;;;;;;110002;1247;60604;-81
2024/04/06 07:28:49;;;;;;;;;;;;;;;;;;110151;1246;60748;-81
2024/04/06 07:31:16;;;;;;;;;;;;;;;;;;109984;1246;61353;-83
2024/04/06 07:33:42;;;;;;;;;;;;;;;;;;109978;1246;60687;-80
2024/04/06 07:36:08;;;;;;;;;;;;;;;;;;109871;1246;60777;-80
2024/04/06 07:38:34;;;;;;;;;;;;;;;;;;110040;1247;60798;-80
2024/04/06 07:41:00;;;;;;;;;;;;;;;;;;109959;1247;61236;-80
2024/04/06 07:43:26;;;;;;;;;;;;;;;;;;110028;1244;61567;-80
2024/04/06 07:45:52;;;;;;;;;;;;;;;;;;110030;1246;61355;-80
2024/04/06 07:48:19;;;;;;;;;;;;;;;;;;110015;1244;61048;-80
2024/04/06 07:50:45;;;;;;;;;;;;;;;;;;109987;1245;61286;-80
2024/04/06 07:53:11;;;;;;;;;;;;;;;;;;110009;1247;60853;-80
2024/04/06 07:55:37;;;;;;;;;;;;;;;;;;110007;1245;61472;-80
2024/04/06 07:58:04;;;;;;;;;;;;;;;;;;109906;1244;60949;-80
2024/04/06 08:00:30;;;;;;;;;;;;;;;;;;110066;1244;61189;-80
2024/04/06 08:02:56;;;;;;;;;;;;;;;;;;110041;1244;60537;-81
2024/04/06 08:05:22;;;;;;;;;;;;;;;;;;109965;1247;60595;-80
2024/04/06 08:07:49;;;;;;;;;;;;;;;;;;110061;1245;60842;-80
2024/04/06 08:10:15;;;;;;;;;;;;;;;;;;110062;1246;61284;-81
2024/04/06 08:12:41;;;;;;;;;;;;;;;;;;110032;1244;60558;-80
2024/04/06 08:15:08;;;;;;;;;;;;;;;;;;110199;1244;60740;-80
2024/04/06 08:17:35;;;;;;;;;;;;;;;;;;110474;1244;60600;-80
2024/04/06 08:20:01;;;;;;;;;;;;;;;;;;110110;1246;60758;-80
2024/04/06 08:22:27;;;;;;;;;;;;;;;;;;110039;1245;60998;-80
2024/04/06 08:24:54;;;;;;;;;;;;;;;;;;109955;1245;61016;-79
2024/04/06 08:27:21;;;;;;;;;;;;;;;;;;110053;1245;61173;-79
2024/04/06 08:29:47;;;;;;;;;;;;;;;;;;109952;1244;60654;-80
2024/04/06 08:32:13;;;;;;;;;;;;;;;;;;110038;1245;61206;-80
2024/04/06 08:34:42;;;;;;;;;;;;;;;;;;109985;1244;62270;-79
2024/04/06 08:37:08;;;;;;;;;;;;;;;;;;109867;1246;61208;-79
2024/04/06 08:39:35;;;;;;;;;;;;;;;;;;109926;1245;60640;-80
2024/04/06 08:42:02;;;;;;;;;;;;;;;;;;109820;1248;60895;-79
2024/04/06 08:44:28;;;;;;;;;;;;;;;;;;109915;1245;60623;-80
2024/04/06 08:46:54;;;;;;;;;;;;;;;;;;109997;1245;61495;-81
2024/04/06 08:49:20;;;;;;;;;;;;;;;;;;110021;1245;60878;-80
2024/04/06 08:51:47;;;;;;;;;;;;;;;;;;110057;1244;61246;-80
2024/04/06 08:54:13;;;;;;;;;;;;;;;;;;109999;1244;60904;-81
2024/04/06 08:56:39;;;;;;;;;;;;;;;;;;110020;1245;60725;-81
2024/04/06 08:59:05;;;;;;;;;;;;;;;;;;110028;1244;60892;-80
2024/04/06 09:01:31;;;;;;;;;;;;;;;;;;109805;1244;62324;-79
2024/04/06 09:03:58;;;;;;;;;;;;;;;;;;109953;1245;61224;-81
2024/04/06 09:06:24;;;;;;;;;;;;;;;;;;110009;1244;60962;-79
2024/04/06 09:08:50;;;;;;;;;;;;;;;;;;109973;1245;60680;-80
2024/04/06 09:11:16;;;;;;;;;;;;;;;;;;109956;1244;60634;-80
2024/04/06 09:13:42;;;;;;;;;;;;;;;;;;109993;1244;61206;-80
2024/04/06 09:16:09;;;;;;;;;;;;;;;;;;110062;1245;61381;-79
2024/04/06 09:18:35;;;;;;;;;;;;;;;;;;110025;1245;61116;-80
2024/04/06 09:21:02;;;;;;;;;;;;;;;;;;109899;1249;60849;-79
2024/04/06 09:23:28;;;;;;;;;;;;;;;;;;110021;1247;61128;-80
2024/04/06 09:25:55;;;;;;;;;;;;;;;;;;109924;1246;64633;-81
2024/04/06 09:28:21;;;;;;;;;;;;;;;;;;109954;1246;60987;-80
2024/04/06 09:30:47;;;;;;;;;;;;;;;;;;109903;1245;60958;-79
2024/04/06 09:33:15;;;;;;;;;;;;;;;;;;110036;1247;60969;-80
2024/04/06 09:35:41;;;;;;;;;;;;;;;;;;110000;1247;61056;-81
2024/04/06 09:38:08;;;;;;;;;;;;;;;;;;110111;1245;60926;-80
2024/04/06 09:40:34;;;;;;;;;;;;;;;;;;110233;1247;60754;-80
2024/04/06 09:43:00;;;;;;;;;;;;;;;;;;110077;1248;60644;-80
2024/04/06 09:45:26;;;;;;;;;;;;;;;;;;109873;1244;61295;-80
2024/04/06 09:47:53;;;;;;;;;;;;;;;;;;110014;1244;60622;-80
2024/04/06 09:50:19;;;;;;;;;;;;;;;;;;110036;1247;61176;-81
2024/04/06 09:52:45;;;;;;;;;;;;;;;;;;109874;1244;61227;-79
2024/04/06 09:55:11;;;;;;;;;;;;;;;;;;109972;1244;61369;-79
2024/04/06 09:57:37;;;;;;;;;;;;;;;;;;109937;1245;61293;-81
2024/04/06 10:00:07;;;;;;;;;;;;;;;;;;109906;1247;60835;-80
2024/04/06 10:02:35;;;;;;;;;;;;;;;;;;110028;1244;62626;-80
2024/04/06 10:05:05;;;;;;;;;;;;;;;;;;110104;1244;60621;-81
2024/04/06 10:07:31;;;;;;;;;;;;;;;;;;110292;1244;60415;-80
2024/04/06 10:09:57;;;;;;;;;;;;;;;;;;110196;1245;60847;-81
2024/04/06 10:12:23;;;;;;;;;;;;;;;;;;110284;1244;60572;-79
2024/04/06 10:14:49;;;;;;;;;;;;;;;;;;110321;1244;60539;-80
2024/04/06 10:17:16;;;;;;;;;;;;;;;;;;110311;1244;60374;-80
2024/04/06 10:19:42;;;;;;;;;;;;;;;;;;110127;1245;60745;-81
2024/04/06 10:22:08;;;;;;;;;;;;;;;;;;110072;1245;60614;-80
2024/04/06 10:24:34;;;;;;;;;;;;;;;;;;110062;1245;60674;-80
2024/04/06 10:27:00;;;;;;;;;;;;;;;;;;110053;1244;61255;-80
2024/04/06 10:29:27;;;;;;;;;;;;;;;;;;110112;1244;60672;-80
2024/04/06 10:31:53;;;;;;;;;;;;;;;;;;109930;1246;61321;-80
2024/04/06 10:34:19;;;;;;;;;;;;;;;;;;110004;1244;61111;-80
2024/04/06 10:36:45;;;;;;;;;;;;;;;;;;110092;1245;60843;-79
2024/04/06 10:39:12;;;;;;;;;;;;;;;;;;110002;1244;61258;-80
2024/04/06 10:41:44;;;;;;;;;;;;;;;;;;110106;1246;60969;-80
2024/04/06 10:44:10;;;;;;;;;;;;;;;;;;109956;1246;60860;-80
2024/04/06 10:46:36;;;;;;;;;;;;;;;;;;110066;1245;60657;-79
2024/04/06 10:49:05;;;;;;;;;;;;;;;;;;110007;1246;60947;-79
2024/04/06 10:51:31;;;;;;;;;;;;;;;;;;110024;1244;61172;-81
2024/04/06 10:53:57;;;;;;;;;;;;;;;;;;109991;1244;61027;-80
2024/04/06 10:56:23;;;;;;;;;;;;;;;;;;109966;1244;61281;-82
2024/04/06 10:58:50;;;;;;;;;;;;;;;;;;110055;1244;60912;-81
2024/04/06 11:01:20;;;;;;;;;;;;;;;;;;109941;1245;61249;-81
2024/04/06 11:03:46;;;;;;;;;;;;;;;;;;109990;1250;60574;-80
2024/04/06 11:06:12;;;;;;;;;;;;;;;;;;110055;1245;60719;-81
2024/04/06 11:08:39;;;;;;;;;;;;;;;;;;109993;1250;61151;-81
2024/04/06 11:11:05;;;;;;;;;;;;;;;;;;110069;1245;60862;-81
2024/04/06 11:13:31;;;;;;;;;;;;;;;;;;110051;1244;62043;-81
2024/04/06 11:15:57;;;;;;;;;;;;;;;;;;110101;1244;60752;-81
2024/04/06 11:18:24;;;;;;;;;;;;;;;;;;110015;1244;60732;-81
2024/04/06 11:20:50;;;;;;;;;;;;;;;;;;110059;1244;61229;-81
2024/04/06 11:23:16;;;;;;;;;;;;;;;;;;110063;1249;60581;-80
2024/04/06 11:25:43;;;;;;;;;;;;;;;;;;110011;1244;60650;-81
2024/04/06 11:28:09;;;;;;;;;;;;;;;;;;110029;1245;61322;-81
2024/04/06 11:30:35;;;;;;;;;;;;;;;;;;110017;1244;61000;-81
2024/04/06 11:33:03;;;;;;;;;;;;;;;;;;109969;1245;60885;-81
2024/04/06 11:35:30;;;;;;;;;;;;;;;;;;110037;1244;60592;-81
2024/04/06 11:37:56;;;;;;;;;;;;;;;;;;110055;1249;61217;-81
2024/04/06 11:40:22;;;;;;;;;;;;;;;;;;110058;1244;60504;-81
2024/04/06 11:42:48;;;;;;;;;;;;;;;;;;110067;1244;60787;-81
2024/04/06 11:45:15;;;;;;;;;;;;;;;;;;110017;1245;61201;-81
2024/04/06 11:47:41;;;;;;;;;;;;;;;;;;110041;1249;61201;-81
2024/04/06 11:50:07;;;;;;;;;;;;;;;;;;110071;1244;60591;-81
2024/04/06 11:52:34;;;;;;;;;;;;;;;;;;110038;1244;60964;-81
2024/04/06 11:55:00;;;;;;;;;;;;;;;;;;109874;1248;60816;-81
2024/04/06 11:57:26;;;;;;;;;;;;;;;;;;110060;1244;61022;-80
2024/04/06 11:59:52;;;;;;;;;;;;;;;;;;110110;1244;60629;-81
2024/04/06 12:02:18;;;;;;;;;;;;;;;;;;110104;1244;61161;-81
2024/04/06 12:04:44;;;;;;;;;;;;;;;;;;110179;1250;60578;-82
2024/04/06 12:07:11;;;;;;;;;;;;;;;;;;110273;1244;60450;-81
2024/04/06 12:09:37;;;;;;;;;;;;;;;;;;110259;1244;60525;-81
2024/04/06 12:12:03;;;;;;;;;;;;;;;;;;110128;1244;61265;-81
2024/04/06 12:14:29;;;;;;;;;;;;;;;;;;110044;1245;60693;-82
2024/04/06 12:16:56;;;;;;;;;;;;;;;;;;110024;1244;61150;-81
2024/04/06 12:19:25;;;;;;;;;;;;;;;;;;110045;1245;61204;-81
2024/04/06 12:21:51;;;;;;;;;;;;;;;;;;110038;1244;61166;-81
2024/04/06 12:24:18;;;;;;;;;;;;;;;;;;110034;1244;61265;-81
2024/04/06 12:26:44;;;;;;;;;;;;;;;;;;110095;1244;60628;-81
2024/04/06 12:29:10;;;;;;;;;;;;;;;;;;110012;1244;61241;-81
2024/04/06 12:31:36;;;;;;;;;;;;;;;;;;110057;1244;61156;-80
2024/04/06 12:34:03;;;;;;;;;;;;;;;;;;110093;1244;60632;-81
2024/04/06 12:36:29;;;;;;;;;;;;;;;;;;110049;1244;60882;-81
2024/04/06 12:38:56;;;;;;;;;;;;;;;;;;110060;1244;60631;-81
2024/04/06 12:41:22;;;;;;;;;;;;;;;;;;110031;1244;60663;-81
2024/04/06 12:43:49;;;;;;;;;;;;;;;;;;110046;1245;61186;-81
2024/04/06 12:46:15;;;;;;;;;;;;;;;;;;110018;1249;60910;-80
2024/04/06 12:49:02;;;;;;;;;;;;;;;;;;110219;1244;64383;-80
2024/04/06 12:51:28;;;;;;;;;;;;;;;;;;110241;1250;60671;-81
2024/04/06 12:53:54;;;;;;;;;;;;;;;;;;110058;1244;60636;-80
2024/04/06 12:56:20;;;;;;;;;;;;;;;;;;110028;1244;61224;-81
2024/04/06 12:58:46;;;;;;;;;;;;;;;;;;110058;1244;60540;-81
2024/04/06 13:01:13;;;;;;;;;;;;;;;;;;110041;1244;60601;-81
2024/04/06 13:03:39;;;;;;;;;;;;;;;;;;110082;1244;61189;-81
2024/04/06 13:06:05;;;;;;;;;;;;;;;;;;110064;1244;60631;-81
2024/04/06 13:08:32;;;;;;;;;;;;;;;;;;109987;1245;60533;-81
2024/04/06 13:10:58;;;;;;;;;;;;;;;;;;110088;1244;61199;-81
2024/04/06 13:13:24;;;;;;;;;;;;;;;;;;110078;1244;61244;-80
2024/04/06 13:15:50;;;;;;;;;;;;;;;;;;109980;1244;61292;-81
2024/04/06 13:18:17;;;;;;;;;;;;;;;;;;109969;1244;61091;-81
2024/04/06 13:20:47;;;;;;;;;;;;;;;;;;110063;1244;60937;-81
2024/04/06 13:23:13;;;;;;;;;;;;;;;;;;110038;1245;60691;-81
2024/04/06 13:25:40;;;;;;;;;;;;;;;;;;110043;1244;63522;-81
2024/04/06 13:28:06;;;;;;;;;;;;;;;;;;110030;1244;60595;-81
2024/04/06 13:30:32;;;;;;;;;;;;;;;;;;109986;1244;61370;-81
2024/04/06 13:32:58;;;;;;;;;;;;;;;;;;110045;1244;60713;-81
2024/04/06 13:35:24;;;;;;;;;;;;;;;;;;110058;1244;60689;-81
2024/04/06 13:37:51;;;;;;;;;;;;;;;;;;110001;1244;61297;-80
2024/04/06 13:40:17;;;;;;;;;;;;;;;;;;110032;1244;60705;-80
2024/04/06 13:42:44;;;;;;;;;;;;;;;;;;110001;1244;61211;-81
2024/04/06 13:45:13;;;;;;;;;;;;;;;;;;110027;1244;60600;-81
2024/04/06 13:47:39;;;;;;;;;;;;;;;;;;110002;1245;60883;-80
2024/04/06 13:50:06;;;;;;;;;;;;;;;;;;110059;1244;62045;-81
2024/04/06 13:52:32;;;;;;;;;;;;;;;;;;110044;1244;60756;-81
2024/04/06 13:54:58;;;;;;;;;;;;;;;;;;110012;1244;60632;-80
2024/04/06 13:57:24;;;;;;;;;;;;;;;;;;110039;1244;61218;-80
2024/04/06 13:59:50;;;;;;;;;;;;;;;;;;110063;1244;61425;-81
2024/04/06 14:02:17;;;;;;;;;;;;;;;;;;110053;1244;61451;-80
2024/04/06 14:04:43;;;;;;;;;;;;;;;;;;110056;1244;61293;-81
2024/04/06 14:07:09;;;;;;;;;;;;;;;;;;110022;1244;60653;-80
2024/04/06 14:09:35;;;;;;;;;;;;;;;;;;110023;1244;61240;-80
2024/04/06 14:12:01;;;;;;;;;;;;;;;;;;110055;1244;60594;-80
2024/04/06 14:14:30;;;;;;;;;;;;;;;;;;109985;1244;61050;-81
2024/04/06 14:16:57;;;;;;;;;;;;;;;;;;110037;1244;61325;-81
2024/04/06 14:19:23;;;;;;;;;;;;;;;;;;110016;1244;60883;-80
2024/04/06 14:21:49;;;;;;;;;;;;;;;;;;110023;1244;60642;-80
2024/04/06 14:24:15;;;;;;;;;;;;;;;;;;110038;1244;61088;-81
2024/04/06 14:26:41;;;;;;;;;;;;;;;;;;109935;1244;61469;-81
2024/04/06 14:29:07;;;;;;;;;;;;;;;;;;110034;1244;61288;-81
2024/04/06 14:31:34;;;;;;;;;;;;;;;;;;110040;1244;60678;-81
2024/04/06 14:34:00;;;;;;;;;;;;;;;;;;110017;1244;60991;-81
2024/04/06 14:36:26;;;;;;;;;;;;;;;;;;109965;1245;61279;-81
2024/04/06 14:38:52;;;;;;;;;;;;;;;;;;110034;1244;61096;-81
2024/04/06 14:41:18;;;;;;;;;;;;;;;;;;110003;1245;61315;-80
2024/04/06 14:43:45;;;;;;;;;;;;;;;;;;110048;1244;61489;-80
2024/04/06 14:46:11;;;;;;;;;;;;;;;;;;110040;1244;60858;-81
2024/04/06 14:48:37;;;;;;;;;;;;;;;;;;110052;1244;60628;-81
2024/04/06 14:51:03;;;;;;;;;;;;;;;;;;110042;1244;61322;-81
2024/04/06 14:53:30;;;;;;;;;;;;;;;;;;110168;1245;60515;-81
2024/04/06 14:55:56;;;;;;;;;;;;;;;;;;110155;1244;60818;-81
2024/04/06 14:58:22;;;;;;;;;;;;;;;;;;110222;1244;60741;-81
2024/04/06 15:00:50;;;;;;;;;;;;;;;;;;110221;1244;63504;-81
2024/04/06 15:03:18;;;;;;;;;;;;;;;;;;110101;1244;60928;-81
2024/04/06 15:05:44;;;;;;;;;;;;;;;;;;110038;1244;61148;-81
2024/04/06 15:08:10;;;;;;;;;;;;;;;;;;110073;1244;60743;-81
2024/04/06 15:10:36;;;;;;;;;;;;;;;;;;110112;1244;60703;-81
2024/04/06 15:13:03;;;;;;;;;;;;;;;;;;110090;1244;60595;-80
2024/04/06 15:15:29;;;;;;;;;;;;;;;;;;110082;1244;61199;-81
2024/04/06 15:17:55;;;;;;;;;;;;;;;;;;110126;1244;60571;-81
2024/04/06 15:20:22;;;;;;;;;;;;;;;;;;110035;1244;60612;-81
2024/04/06 15:22:48;;;;;;;;;;;;;;;;;;110091;1244;60586;-81
2024/04/06 15:25:14;;;;;;;;;;;;;;;;;;110091;1244;60607;-81
2024/04/06 15:27:41;;;;;;;;;;;;;;;;;;110122;1244;60867;-80
2024/04/06 15:30:07;;;;;;;;;;;;;;;;;;110045;1244;60728;-81
2024/04/06 15:32:33;;;;;;;;;;;;;;;;;;110087;1244;61099;-81
2024/04/06 15:34:59;;;;;;;;;;;;;;;;;;110083;1244;61114;-81
2024/04/06 15:37:26;;;;;;;;;;;;;;;;;;110086;1244;60687;-81
2024/04/06 15:39:52;;;;;;;;;;;;;;;;;;110088;1244;61100;-81
2024/04/06 15:42:19;;;;;;;;;;;;;;;;;;110111;1244;61262;-81
2024/04/06 15:44:45;;;;;;;;;;;;;;;;;;110086;1244;60656;-80
2024/04/06 15:47:13;;;;;;;;;;;;;;;;;;110101;1244;60645;-81
2024/04/06 15:49:39;;;;;;;;;;;;;;;;;;110065;1244;61331;-81
2024/04/06 15:52:05;;;;;;;;;;;;;;;;;;110088;1244;60566;-81
2024/04/06 15:54:31;;;;;;;;;;;;;;;;;;110106;1244;60544;-81
2024/04/06 15:56:58;;;;;;;;;;;;;;;;;;110112;1244;60677;-80
2024/04/06 15:59:24;;;;;;;;;;;;;;;;;;110117;1244;60659;-81
2024/04/06 16:01:51;;;;;;;;;;;;;;;;;;110132;1244;60721;-81
2024/04/06 16:04:17;;;;;;;;;;;;;;;;;;110101;1244;60550;-81
2024/04/06 16:06:43;;;;;;;;;;;;;;;;;;110074;1244;60651;-80
2024/04/06 16:09:10;;;;;;;;;;;;;;;;;;110027;1244;60950;-81
2024/04/06 16:11:36;;;;;;;;;;;;;;;;;;110108;1244;60503;-81
2024/04/06 16:14:02;;;;;;;;;;;;;;;;;;110091;1244;61415;-81
2024/04/06 16:16:29;;;;;;;;;;;;;;;;;;110074;1244;61240;-81
2024/04/06 16:18:55;;;;;;;;;;;;;;;;;;110082;1244;61006;-81
2024/04/06 16:21:21;;;;;;;;;;;;;;;;;;110100;1244;61266;-81
2024/04/06 16:23:47;;;;;;;;;;;;;;;;;;110128;1244;61251;-80